Latest Weather Observations for Normanton

IDQ60801

Issued at 9:32 am EST Thursday 3 September 2015 (issued every 30 minutes, with the page automatically refreshed every 10 minutes)

About weather observations | Map of weather stations | Latest weather observations for QLD | Other Formats
Station Details ID: 029063 Name: NORMANTON AIRPORT Lat: -17.69 Lon: 141.07 Height: 18.42 m
Data from the previous 72 hours. | See also: Recent months at Normanton
Date/Time
EST
Temp
°C
App
Temp
°C
Dew
Point
Rel
Hum
%
Delta-T
°C
Wind Press
QNH
hPa
Press
MSL
hPa
Rain
since 9 am
mm
Dir
 
Spd
km/h
Gust
km/h
Spd
kts
Gust
kts
03/09:30am 27.2 22.2 6.6 27 10.8 SE 22 35 12 19 1020.1 - 0.0
03/09:00am 26.0 22.3 9.4 35 9.1 ESE 19 30 10 16 1019.9 1019.7 0.0
03/08:30am 24.9 23.4 14.1 51 6.4 SSE 15 22 8 12 1019.8 - 0.0
03/08:00am 23.3 25.2 19.0 77 2.7 SE 7 9 4 5 1019.5 - 0.0
03/07:30am 21.4 24.6 21.2 99 0.1 SE 6 6 3 3 1019.0 - 0.0
03/07:00am 20.3 24.2 20.3 100 0.0 CALM 0 7 0 4 1018.6 - 0.0
03/06:30am 20.6 24.2 20.6 100 0.0 NE 2 6 1 3 1018.2 - 0.0
03/06:00am 21.3 22.8 20.5 95 0.5 ENE 13 19 7 10 1017.7 1017.6 0.0
03/05:30am 22.0 24.1 20.1 89 1.2 S 9 13 5 7 1016.7 - 0.0
03/05:00am 22.3 23.9 20.8 91 1.0 S 13 19 7 10 1016.4 - 0.0
03/04:37am 22.3 24.1 21.8 97 0.3 S 15 22 8 12 1016.4 - 0.0
03/04:30am 22.3 23.5 22.1 99 0.1 S 19 28 10 15 1016.3 - 0.0
03/04:00am 21.4 22.0 21.4 100 0.0 S 20 32 11 17 1015.8 - 0.0
03/03:55am 21.3 21.1 21.3 100 0.0 S 24 32 13 17 1015.7 - 0.0
03/03:30am 21.4 23.7 21.4 100 0.0 WNW 11 13 6 7 1014.5 - 0.0
03/03:00am 21.6 24.8 21.6 100 0.0 WSW 7 9 4 5 1014.8 1014.6 0.0
03/02:30am 21.8 25.1 21.8 100 0.0 W 7 9 4 5 1014.8 - 0.0
03/02:00am 21.9 25.2 21.9 100 0.0 W 7 9 4 5 1014.8 - 0.0
03/01:30am 21.9 25.2 21.9 100 0.0 W 7 9 4 5 1014.8 - 0.0
03/01:00am 22.3 25.5 22.3 100 0.0 WNW 9 11 5 6 1014.7 - 0.0
03/12:30am 22.2 25.7 21.9 98 0.2 WNW 6 7 3 4 1014.8 - 0.0
03/12:00am 22.8 26.5 22.3 97 0.3 NW 6 7 3 4 1014.9 1014.6 0.0
 
Date/Time
EST
Temp
°C
App
Temp
°C
Dew
Point
Rel
Hum
%
Delta-T
°C
Wind Press
QNH
hPa
Press
MSL
hPa
Rain
since 9 am
mm
Dir
 
Spd
km/h
Gust
km/h
Spd
kts
Gust
kts
02/11:30pm 23.0 26.2 22.3 96 0.5 NW 9 11 5 6 1014.9 - 0.0
02/11:00pm 23.2 26.1 22.4 95 0.5 NW 11 13 6 7 1014.9 - 0.0
02/10:30pm 23.4 26.1 22.2 93 0.8 NW 11 15 6 8 1014.9 - 0.0
02/10:00pm 23.7 25.7 22.3 92 0.9 NW 15 19 8 10 1014.9 - 0.0
02/09:30pm 23.8 25.9 22.4 92 0.9 NW 15 20 8 11 1014.7 - 0.0
02/09:00pm 24.0 25.9 22.1 89 1.3 NW 15 19 8 10 1014.5 1014.3 0.0
02/08:30pm 24.3 26.2 22.0 87 1.5 WNW 15 20 8 11 1014.5 - 0.0
02/08:00pm 24.9 26.4 21.2 80 2.4 WNW 15 17 8 9 1014.5 - 0.0
02/07:30pm 25.4 26.2 20.6 75 3.1 NW 17 20 9 11 1014.1 - 0.0
02/07:00pm 26.1 25.8 19.2 65 4.4 NW 19 24 10 13 1013.7 - 0.0
02/06:30pm 27.5 26.4 17.7 55 6.2 WNW 20 28 11 15 1013.3 - 0.0
02/06:00pm 29.5 27.5 15.6 43 8.6 NW 20 26 11 14 1012.8 1012.6 0.0
02/05:30pm 30.6 26.7 13.4 35 10.3 NNW 26 30 14 16 1012.5 - 0.0
02/05:00pm 31.9 28.5 13.6 32 11.0 NNW 24 32 13 17 1012.3 - 0.0
02/04:30pm 32.6 28.9 12.8 30 11.8 NNW 24 32 13 17 1012.3 - 0.0
02/04:00pm 33.0 28.5 11.5 27 12.6 NNW 26 35 14 19 1012.3 - 0.0
02/03:30pm 34.1 29.8 11.9 26 13.2 NNW 26 35 14 19 1012.4 - 0.0
02/03:00pm 33.7 28.5 9.0 22 14.0 NNW 26 35 14 19 1012.8 1012.6 0.0
02/02:30pm 33.4 28.7 9.4 23 13.7 NNW 24 30 13 16 1013.4 - 0.0
02/02:00pm 34.5 29.5 9.7 22 14.3 NNW 26 35 14 19 1013.8 - 0.0
02/01:30pm 34.2 29.9 12.0 26 13.2 NNW 26 43 14 23 1014.2 - 0.0
02/01:00pm 33.7 30.3 14.7 32 11.7 NNW 26 41 14 22 1014.9 - 0.0
02/12:30pm 32.2 29.4 14.3 33 10.9 N 22 32 12 17 1015.5 - 0.0
02/12:00pm 32.8 30.1 13.4 30 11.7 NNW 20 35 11 19 1016.0 1015.8 0.0
02/11:30am 31.2 27.5 11.6 30 11.4 N 22 33 12 18 1016.6 - 0.0
02/11:21am 31.2 27.7 12.1 31 11.2 N 22 32 12 17 1016.7 - 0.0
02/11:00am 30.7 28.0 11.6 31 11.1 N 17 26 9 14 1017.1 - 0.0
02/10:30am 29.5 28.1 14.5 40 9.1 N 15 24 8 13 1017.3 - 0.0
02/10:00am 28.8 27.7 15.3 43 8.3 N 15 20 8 11 1017.5 - 0.0
02/09:30am 27.5 27.3 17.7 55 6.2 N 15 24 8 13 1017.4 - 0.0
02/09:00am 25.2 24.9 19.6 71 3.6 N 20 26 11 14 1017.3 1017.0 0.0
02/08:30am 24.1 25.5 21.0 83 2.0 N 15 20 8 11 1017.0 - 0.0
02/08:00am 22.3 23.9 20.8 91 1.0 N 13 20 7 11 1016.5 - 0.0
02/07:30am 20.8 22.2 20.3 97 0.3 NNE 13 17 7 9 1016.1 - 0.0
02/07:00am 19.7 21.1 19.5 99 0.1 NNE 11 17 6 9 1015.8 - 0.0
02/06:30am 19.3 20.1 18.1 93 0.7 NNE 11 15 6 8 1015.4 - 0.0
02/06:00am 19.6 19.4 16.8 84 1.7 NNE 13 17 7 9 1014.9 1014.6 0.0
02/05:30am 20.1 20.0 15.9 77 2.5 NNE 11 17 6 9 1014.4 - 0.0
02/05:00am 20.2 19.7 16.0 77 2.5 NNE 13 22 7 12 1014.3 - 0.0
02/04:30am 19.0 19.7 16.2 84 1.7 WSW 7 9 4 5 1013.2 - 0.0
02/04:00am 19.0 20.1 15.5 80 2.1 WSW 4 7 2 4 1013.3 - 0.0
02/03:30am 19.3 19.8 15.6 79 2.2 WSW 7 9 4 5 1013.3 - 0.0
02/03:00am 19.4 19.8 15.3 77 2.4 WSW 7 9 4 5 1013.3 1013.1 0.0
02/02:30am 19.3 19.8 15.0 76 2.5 WNW 6 6 3 3 1013.3 - 0.0
02/02:00am 19.3 19.5 14.6 74 2.7 NW 7 7 4 4 1013.3 - 0.0
02/01:30am 20.0 20.2 14.8 72 3.0 NW 7 9 4 5 1013.3 - 0.0
02/01:00am 19.9 19.9 14.3 70 3.2 NW 7 9 4 5 1013.4 - 0.0
02/12:30am 20.3 20.1 14.7 70 3.3 WNW 9 11 5 6 1013.4 - 0.0
02/12:00am 20.7 20.9 14.8 69 3.5 WNW 7 9 4 5 1013.5 1013.3 0.0
 
Date/Time
EST
Temp
°C
App
Temp
°C
Dew
Point
Rel
Hum
%
Delta-T
°C
Wind Press
QNH
hPa
Press
MSL
hPa
Rain
since 9 am
mm
Dir
 
Spd
km/h
Gust
km/h
Spd
kts
Gust
kts
01/11:30pm 20.7 20.9 14.8 69 3.5 NW 7 9 4 5 1013.4 - 0.0
01/11:00pm 21.3 21.3 15.2 68 3.6 NW 9 11 5 6 1013.3 - 0.0
01/10:30pm 21.7 21.7 15.3 67 3.8 WNW 9 11 5 6 1013.3 - 0.0
01/10:00pm 22.2 21.8 15.1 64 4.2 WNW 11 13 6 7 1013.1 - 0.0
01/09:30pm 22.8 22.3 14.9 61 4.7 NW 11 13 6 7 1013.0 - 0.0
01/09:00pm 23.3 22.6 14.3 57 5.3 WNW 11 15 6 8 1012.7 1012.4 0.0
01/08:30pm 23.8 22.9 14.8 57 5.4 WNW 13 17 7 9 1012.4 - 0.0
01/08:00pm 24.2 23.3 13.7 52 6.1 NW 11 15 6 8 1012.3 - 0.0
01/07:30pm 25.1 23.9 12.7 46 7.2 NW 11 15 6 8 1011.8 - 0.0
01/07:00pm 26.1 23.8 11.8 41 8.2 NW 15 19 8 10 1011.3 - 0.0
01/06:30pm 27.2 23.7 10.8 36 9.3 NW 20 28 11 15 1011.0 - 0.0
01/06:00pm 29.1 24.2 9.8 30 10.8 NW 26 30 14 16 1010.7 1010.5 0.0
01/05:30pm 30.0 24.1 9.0 27 11.7 NW 30 35 16 19 1010.5 - 0.0
01/05:00pm 31.8 26.3 7.5 22 13.3 NW 26 33 14 18 1010.3 - 0.0
01/04:30pm 33.0 27.0 5.5 18 14.7 NW 26 33 14 18 1010.1 - 0.0
01/04:00pm 34.4 28.5 2.0 13 16.5 NW 22 35 12 19 1010.0 - 0.0
01/03:30pm 34.6 30.7 1.1 12 16.8 NNW 11 24 6 13 1010.1 - 0.0
01/03:00pm 34.4 29.3 -1.6 10 17.3 NNW 15 20 8 11 1010.6 1010.5 0.0
01/02:30pm 34.4 30.3 -0.3 11 17.0 NNW 11 22 6 12 1011.1 - 0.0
01/02:00pm 34.1 30.0 -0.5 11 16.9 NW 11 22 6 12 1011.7 - 0.0
01/01:30pm 34.2 30.1 -0.4 11 16.9 N 11 24 6 13 1012.4 - 0.0
01/01:00pm 33.9 29.7 1.6 13 16.3 ENE 13 22 7 12 1012.9 - 0.0
01/12:30pm 32.8 29.8 1.8 14 15.6 WNW 7 19 4 10 1013.5 - 0.0
01/12:00pm 32.8 29.7 3.7 16 15.1 E 9 11 5 6 1014.1 1014.0 0.0
01/11:30am 31.5 28.2 4.3 18 14.1 NE 11 20 6 11 1014.8 - 0.0
01/11:00am 30.3 27.6 5.6 21 13.0 E 9 15 5 8 1015.4 - 0.0
01/10:30am 29.4 25.7 2.6 18 13.3 ENE 11 19 6 10 1015.7 - 0.0
01/10:00am 28.3 23.5 -2.7 13 13.9 ENE 13 20 7 11 1015.8 - 0.0
01/09:30am 26.3 21.9 -2.4 15 12.8 E 11 17 6 9 1015.8 - 0.0
01/09:00am 24.2 20.3 -1.6 18 11.4 ESE 9 15 5 8 1015.7 1015.6 0.0
01/08:30am 22.2 18.3 -1.8 20 10.4 ESE 9 15 5 8 1015.8 - 0.0
01/08:00am 19.2 14.9 -1.8 24 8.9 E 11 19 6 10 1015.3 - 0.0
01/07:30am 19.0 13.8 -2.6 23 9.0 S 15 17 8 9 1015.0 - 0.0
01/07:00am 17.8 12.9 -3.0 24 8.5 S 13 13 7 7 1014.7 - 0.0
01/06:30am 18.6 13.8 -2.3 24 8.7 SSE 13 17 7 9 1014.2 - 0.0
01/06:00am 18.7 13.5 -2.8 23 8.9 SSE 15 19 8 10 1013.9 1013.6 0.0
01/05:30am 19.4 13.8 -2.8 22 9.2 SSE 17 20 9 11 1013.7 - 0.0
01/05:00am 19.7 14.1 -2.6 22 9.3 SSE 17 20 9 11 1013.6 - 0.0
01/04:30am 20.4 14.4 -3.3 20 9.8 SSE 19 26 10 14 1013.5 - 0.0
01/04:00am 21.0 14.8 -2.8 20 10.0 SSE 20 26 11 14 1013.5 - 0.0
01/03:30am 20.7 15.1 -3.0 20 9.9 S 17 22 9 12 1013.7 - 0.0
01/03:00am 21.2 15.1 -4.0 18 10.4 S 19 22 10 12 1013.7 1013.5 0.0
01/02:30am 21.5 15.4 -3.8 18 10.5 S 19 20 10 11 1013.7 - 0.0
01/02:00am 21.5 15.8 -3.8 18 10.5 S 17 20 9 11 1013.8 - 0.0
01/01:30am 21.7 16.4 -3.6 18 10.6 S 15 19 8 10 1013.8 - 0.0
01/01:00am 21.9 16.6 -3.5 18 10.6 S 15 19 8 10 1013.9 - 0.0
01/12:30am 21.8 16.9 -3.5 18 10.6 S 13 15 7 8 1014.0 - 0.0
01/12:00am 22.8 17.8 -4.3 16 11.3 S 13 17 7 9 1014.1 1014.1 0.0
 
Date/Time
EST
Temp
°C
App
Temp
°C
Dew
Point
Rel
Hum
%
Delta-T
°C
Wind Press
QNH
hPa
Press
MSL
hPa
Rain
since 9 am
mm
Dir
 
Spd
km/h
Gust
km/h
Spd
kts
Gust
kts
31/11:30pm 23.6 18.2 -4.5 15 11.7 S 15 17 8 9 1014.2 - 0.0
31/11:00pm 24.0 19.0 -4.2 15 11.9 S 13 17 7 9 1014.1 - 0.0
31/10:30pm 24.2 19.2 -4.0 15 12.0 S 13 15 7 8 1013.9 - 0.0
31/10:00pm 24.9 19.6 -3.5 15 12.2 S 15 19 8 10 1013.8 - 0.0
31/09:30pm 23.7 18.9 -2.8 17 11.4 SSW 13 15 7 8 1013.6 - 0.0
31/09:00pm 24.2 19.5 -1.6 18 11.4 SW 13 13 7 7 1013.5 1013.4 0.0
31/08:30pm 24.7 21.2 3.4 25 10.4 WSW 11 15 6 8 1013.4 - 0.0
31/08:00pm 25.6 22.4 2.9 23 11.1 WNW 9 13 5 7 1013.1 - 0.0
31/07:30pm 26.6 22.4 -4.0 13 13.3 SW 9 11 5 6 1012.6 - 0.0
31/07:00pm 27.9 23.7 -4.1 12 14.0 SSW 9 11 5 6 1012.3 - 0.0
31/06:30pm 30.4 26.1 -4.6 10 15.5 S 9 13 5 7 1012.1 - 0.0
31/06:00pm 32.4 27.6 -6.0 8 16.9 WSW 11 15 6 8 1011.9 1011.8 0.0
31/05:30pm 33.0 28.8 -4.0 9 16.9 WSW 9 17 5 9 1011.8 - 0.0
31/05:00pm 33.0 28.2 -5.6 8 17.1 S 11 17 6 9 1011.7 - 0.0
31/04:30pm 33.4 28.3 -5.3 8 17.3 SW 13 20 7 11 1011.6 - 0.0
31/04:00pm 32.9 28.7 -4.1 9 16.8 SSE 9 17 5 9 1011.7 - 0.0
31/03:30pm 33.4 27.9 -5.3 8 17.3 SW 15 24 8 13 1011.9 - 0.0
31/03:00pm 33.3 30.1 -3.8 9 17.0 E 4 15 2 8 1012.3 1012.3 0.0
31/02:30pm 33.0 26.7 -4.0 9 16.9 SSW 20 33 11 18 1012.8 - 0.0
31/02:00pm 32.9 28.7 -4.1 9 16.8 SSW 9 20 5 11 1013.4 - 0.0
31/01:30pm 32.2 27.3 -3.2 10 16.3 S 13 20 7 11 1013.8 - 0.0
31/01:00pm 32.2 26.9 -0.8 12 15.8 ESE 17 26 9 14 1014.2 - 0.0
31/12:30pm 31.9 26.4 -2.2 11 15.9 SE 17 30 9 16 1014.7 - 0.0
31/12:00pm 31.2 25.7 0.6 14 14.9 SSE 19 24 10 13 1015.3 1015.3 0.0
31/11:30am 31.1 25.2 1.4 15 14.6 S 22 32 12 17 1015.7 - 0.0
31/11:00am 30.2 25.2 1.6 16 14.1 SE 17 30 9 16 1016.2 - 0.0
31/10:30am 29.2 24.0 2.5 18 13.2 SE 19 30 10 16 1016.5 - 0.0
31/10:00am 28.4 23.2 2.6 19 12.8 SE 19 32 10 17 1016.7 - 0.0

Other Formats:

Comma delimited format used in spreadsheet applications
http://www.bom.gov.au/fwo/IDQ60801/IDQ60801.94266.axf

JavaScript Object Notation format (JSON) in row-major order
http://www.bom.gov.au/fwo/IDQ60801/IDQ60801.94266.json